Time;durP1;ratioP1;P1;durP2;ratioP2;P2;SDS_P1;SDS_P2;PMS_P1;PMS_P2;Temp;Humidity;BMP_temperature;BMP_pressure;BME280_temperature;BME280_humidity;BME280_pressure;Samples;Min_cycle;Max_cycle;Signal;HPM_P1;HPM_P2
2023/09/14 00:01:11;;;;;;;;;;;19.90;64.80;;;15.79;100.00;95929.06;5032938;28;19912;-50
2023/09/14 00:03:37;;;;;;;;;;;19.90;64.80;;;15.80;100.00;95925.31;5012725;28;20488;-49
2023/09/14 00:06:03;;;;;;;;;;;19.90;64.80;;;15.80;100.00;95924.53;5012209;28;20368;-46
2023/09/14 00:08:32;;;;;;;;;;;19.90;64.80;;;15.79;100.00;95926.38;5022078;28;19913;-49
2023/09/14 00:11:01;;;;;;;;;;;19.90;64.80;;;15.79;100.00;95931.75;5029687;28;19913;-46
2023/09/14 00:13:27;;;;;;;;;;;19.90;65.10;;;15.80;100.00;95925.31;5029994;28;19909;-48
2023/09/14 00:15:53;;;;;;;;;;;19.90;64.90;;;15.77;100.00;95933.97;5030885;28;19947;-47
2023/09/14 00:18:20;;;;;;;;;;;19.90;64.90;;;15.77;100.00;95936.63;5033207;28;19944;-47
2023/09/14 00:20:46;;;;;;;;;;;19.90;64.90;;;15.76;100.00;95937.72;5031681;28;19912;-50
2023/09/14 00:23:12;;;;;;;;;;;19.90;64.90;;;15.77;100.00;95933.97;5033085;28;19909;-50
2023/09/14 00:25:38;;;;;;;;;;;19.90;64.90;;;15.75;100.00;95933.44;5028692;28;19967;-47
2023/09/14 00:28:05;;;;;;;;;;;19.90;64.90;;;15.80;100.00;95927.22;5010102;28;19920;-50
2023/09/14 00:30:30;;;;;;;;;;;19.90;64.90;;;15.81;100.00;95932.28;5008884;28;19909;-49
2023/09/14 00:32:56;;;;;;;;;;;20.00;65.00;;;15.83;100.00;95927.44;5019198;28;19915;-48
2023/09/14 00:35:22;;;;;;;;;;;20.00;65.10;;;15.84;100.00;95928.22;5023363;28;19931;-46
2023/09/14 00:37:48;;;;;;;;;;;19.90;65.00;;;15.83;100.00;95926.63;5009264;28;20384;-45
2023/09/14 00:40:16;;;;;;;;;;;19.90;65.10;;;15.81;100.00;95928.81;5000968;28;19959;-50
2023/09/14 00:42:48;;;;;;;;;;;19.90;65.10;;;15.83;100.00;95932.00;5007833;28;19913;-50
2023/09/14 00:45:17;;;;;;;;;;;19.90;65.10;;;15.85;100.00;95925.22;5011849;28;19919;-46
2023/09/14 00:47:58;;;;;;;;;;;19.90;65.20;;;15.82;100.00;95927.69;5031499;28;19913;-47
2023/09/14 00:50:29;;;;;;;;;;;19.90;65.20;;;15.83;100.00;95927.44;5026955;28;20359;-45
2023/09/14 00:53:06;;;;;;;;;;;19.90;65.30;;;15.86;100.00;95926.06;5017291;28;19916;-45
2023/09/14 00:55:33;;;;;;;;;;;20.00;65.40;;;15.88;100.00;95932.72;4984172;28;19924;-46
2023/09/14 00:58:00;;;;;;;;;;;20.00;65.40;;;15.88;100.00;95926.53;4990227;28;19948;-47
2023/09/14 01:00:27;;;;;;;;;;;20.00;65.40;;;15.90;100.00;95927.84;5030213;28;19913;-47
2023/09/14 01:02:55;;;;;;;;;;;20.00;65.40;;;15.91;100.00;95923.28;5011601;28;20342;-49
2023/09/14 01:05:21;;;;;;;;;;;20.00;65.40;;;15.91;100.00;95921.38;5015745;28;19917;-47
2023/09/14 01:07:48;;;;;;;;;;;20.10;65.40;;;15.94;100.00;95930.75;5027476;28;19967;-47
2023/09/14 01:10:15;;;;;;;;;;;20.10;65.40;;;15.95;100.00;95927.81;5018105;28;20353;-45
2023/09/14 01:12:44;;;;;;;;;;;20.10;65.30;;;15.95;100.00;95918.91;5030802;28;19909;-47
2023/09/14 01:15:47;;;;;;;;;;;20.10;65.40;;;15.93;100.00;95923.81;5012939;28;19956;-45
2023/09/14 01:19:01;;;;;;;;;;;20.10;65.30;;;15.92;100.00;95928.38;4993462;28;20015;-50
2023/09/14 01:21:41;;;;;;;;;;;20.10;65.30;;;15.92;100.00;95919.53;4980383;28;20347;-45
2023/09/14 01:24:56;;;;;;;;;;;20.10;65.40;;;15.89;100.00;95920.09;5011169;28;20275;-46
2023/09/14 01:27:23;;;;;;;;;;;20.10;65.30;;;15.85;100.00;95917.19;4958144;28;19914;-50
2023/09/14 01:29:49;;;;;;;;;;;20.00;65.40;;;15.83;100.00;95924.75;4999984;28;19913;-48
2023/09/14 01:32:16;;;;;;;;;;;20.00;65.40;;;15.79;100.00;95923.69;5005685;28;20325;-47
2023/09/14 01:34:42;;;;;;;;;;;19.90;65.30;;;15.79;100.00;95917.53;4993386;28;20371;-48
2023/09/14 01:37:08;;;;;;;;;;;19.90;65.40;;;15.77;100.00;95920.53;5010321;28;20302;-46
2023/09/14 01:39:35;;;;;;;;;;;19.90;65.50;;;15.77;100.00;95922.41;5004448;28;19909;-48
2023/09/14 01:42:02;;;;;;;;;;;19.90;65.50;;;15.74;100.00;95923.78;4993613;28;19915;-48
2023/09/14 01:44:30;;;;;;;;;;;19.90;65.50;;;15.70;100.00;95925.47;5009075;28;19999;-45
2023/09/14 01:46:56;;;;;;;;;;;19.90;65.60;;;15.67;100.00;95921.47;4989928;28;19910;-46
2023/09/14 01:49:23;;;;;;;;;;;19.90;65.50;;;15.66;100.00;95919.81;5009808;28;19959;-45
2023/09/14 01:51:49;;;;;;;;;;;19.80;65.50;;;15.61;100.00;95924.47;5005850;28;19913;-45
2023/09/14 01:54:14;;;;;;;;;;;19.80;65.50;;;15.57;100.00;95920.75;5011181;28;19913;-44
2023/09/14 01:56:42;;;;;;;;;;;19.80;65.50;;;15.53;100.00;95925.88;5007131;28;19913;-46
2023/09/14 01:59:07;;;;;;;;;;;19.70;65.50;;;15.49;100.00;95914.94;5010762;28;19913;-45
2023/09/14 02:01:33;;;;;;;;;;;19.70;65.60;;;15.46;100.00;95926.25;5009041;28;19913;-47
2023/09/14 02:03:59;;;;;;;;;;;19.70;65.60;;;15.44;100.00;95924.94;5010850;28;19909;-46
2023/09/14 02:06:25;;;;;;;;;;;19.60;65.60;;;15.41;100.00;95918.25;5009869;28;19917;-46
2023/09/14 02:08:50;;;;;;;;;;;19.60;65.60;;;15.40;100.00;95931.97;5004751;28;19921;-45
2023/09/14 02:11:16;;;;;;;;;;;19.60;65.70;;;15.40;100.00;95930.06;5010401;28;19956;-47
2023/09/14 02:13:42;;;;;;;;;;;19.60;65.70;;;15.40;100.00;95918.53;5009203;28;20792;-45
2023/09/14 02:16:09;;;;;;;;;;;19.60;65.80;;;15.39;100.00;95931.16;5012036;28;19932;-45
2023/09/14 02:18:35;;;;;;;;;;;19.60;65.80;;;15.36;100.00;95925.56;5023494;28;19913;-46
2023/09/14 02:21:01;;;;;;;;;;;19.60;65.80;;;15.33;100.00;95924.25;5022798;28;19913;-51
2023/09/14 02:23:26;;;;;;;;;;;19.60;65.80;;;15.30;100.00;95918.66;5030415;28;20337;-45
2023/09/14 02:25:52;;;;;;;;;;;19.50;65.70;;;15.28;100.00;95914.38;5018299;28;19909;-45
2023/09/14 02:28:21;;;;;;;;;;;19.50;65.80;;;15.25;100.00;95914.94;5019174;28;19923;-46
2023/09/14 02:30:48;;;;;;;;;;;19.50;65.80;;;15.21;100.00;95915.81;5018898;28;19913;-50
2023/09/14 02:33:14;;;;;;;;;;;19.40;65.70;;;15.18;100.00;95917.16;5018797;28;19912;-49
2023/09/14 02:35:41;;;;;;;;;;;19.40;65.80;;;15.14;100.00;95908.09;5033798;28;20679;-46
2023/09/14 02:38:08;;;;;;;;;;;19.40;65.80;;;15.09;100.00;95907.34;5013342;28;19916;-52
2023/09/14 02:40:36;;;;;;;;;;;19.30;65.80;;;15.04;100.00;95906.34;5033938;28;20297;-44
2023/09/14 02:43:02;;;;;;;;;;;19.30;65.80;;;15.02;100.00;95910.38;5033305;28;20256;-45
2023/09/14 02:45:28;;;;;;;;;;;19.20;65.80;;;15.01;100.00;95911.44;5024888;28;19920;-47
2023/09/14 02:47:54;;;;;;;;;;;19.20;66.00;;;14.98;100.00;95909.34;5025725;28;19912;-46
2023/09/14 02:50:19;;;;;;;;;;;19.20;66.00;;;14.95;100.00;95916.09;5023384;28;20263;-49
2023/09/14 02:52:45;;;;;;;;;;;19.10;66.10;;;14.94;100.00;95911.78;5026147;28;19951;-46
2023/09/14 02:55:12;;;;;;;;;;;19.10;66.10;;;14.95;100.00;95913.41;5024715;28;20314;-45
2023/09/14 02:57:37;;;;;;;;;;;19.10;66.20;;;14.95;100.00;95916.09;5012698;28;19913;-45
2023/09/14 03:00:07;;;;;;;;;;;19.10;66.40;;;14.98;100.00;95912.03;5025160;28;19958;-45
2023/09/14 03:02:33;;;;;;;;;;;19.10;66.40;;;14.98;100.00;95910.16;5024368;28;19916;-46
2023/09/14 03:04:59;;;;;;;;;;;19.20;66.40;;;15.01;100.00;95908.75;5025328;28;20322;-46
2023/09/14 03:07:25;;;;;;;;;;;19.20;66.50;;;14.99;100.00;95916.31;5029358;28;19917;-45
2023/09/14 03:09:51;;;;;;;;;;;19.10;66.40;;;14.98;100.00;95920.88;5028704;28;19931;-45
2023/09/14 03:12:16;;;;;;;;;;;19.10;66.40;;;14.96;100.00;95923.03;5031785;28;20256;-46
2023/09/14 03:14:42;;;;;;;;;;;19.10;66.40;;;14.94;100.00;95919.81;5013030;28;19909;-43
2023/09/14 03:17:08;;;;;;;;;;;19.10;66.40;;;14.94;100.00;95922.50;5002302;28;19917;-45
2023/09/14 03:19:34;;;;;;;;;;;19.10;66.40;;;14.96;100.00;95919.56;5010086;28;19908;-44
2023/09/14 03:21:59;;;;;;;;;;;19.10;66.50;;;14.98;100.00;95920.09;4992939;28;20264;-47
2023/09/14 03:24:25;;;;;;;;;;;19.10;66.60;;;15.00;100.00;95920.59;4996239;28;20365;-46
2023/09/14 03:26:51;;;;;;;;;;;19.10;66.60;;;15.02;100.00;95926.47;4992655;28;19910;-46
2023/09/14 03:29:17;;;;;;;;;;;19.10;66.60;;;15.01;100.00;95920.31;4993598;28;19909;-47
2023/09/14 03:31:42;;;;;;;;;;;19.20;66.60;;;15.01;100.00;95925.69;4992760;28;20013;-44
2023/09/14 03:34:08;;;;;;;;;;;19.20;66.60;;;15.00;100.00;95918.69;4993370;28;19909;-44
2023/09/14 03:36:36;;;;;;;;;;;19.20;66.60;;;15.03;100.00;95911.97;4992845;28;19909;-44
2023/09/14 03:39:02;;;;;;;;;;;19.20;66.60;;;15.06;100.00;95918.66;4970452;28;19925;-45
2023/09/14 03:41:27;;;;;;;;;;;19.20;66.60;;;15.04;100.00;95914.38;4993598;28;19959;-44
2023/09/14 03:43:53;;;;;;;;;;;19.20;66.50;;;15.06;100.00;95910.59;4992516;28;20327;-44
2023/09/14 03:46:19;;;;;;;;;;;19.30;66.70;;;15.09;100.00;95915.41;4994092;28;20418;-46
2023/09/14 03:48:45;;;;;;;;;;;19.20;66.60;;;15.09;100.00;95910.84;4993428;28;19920;-44
2023/09/14 03:51:10;;;;;;;;;;;19.30;66.70;;;15.11;100.00;95913.25;4992398;28;19921;-44
2023/09/14 03:53:36;;;;;;;;;;;19.30;66.70;;;15.12;100.00;95910.25;4993423;28;19977;-44
2023/09/14 03:56:03;;;;;;;;;;;19.30;66.70;;;15.14;100.00;95907.31;4992018;28;19921;-44
2023/09/14 03:58:31;;;;;;;;;;;19.30;66.70;;;15.15;100.00;95906.22;4988797;28;19933;-44
2023/09/14 04:00:57;;;;;;;;;;;19.30;66.70;;;15.15;100.00;95912.38;4989390;28;20324;-45
2023/09/14 04:03:23;;;;;;;;;;;19.40;66.70;;;15.15;100.00;95909.69;4995944;28;20004;-46
2023/09/14 04:05:49;;;;;;;;;;;19.40;66.70;;;15.17;100.00;95906.75;4992694;28;19986;-49
2023/09/14 04:08:14;;;;;;;;;;;19.40;66.70;;;15.17;100.00;95912.09;4992554;28;19920;-45
2023/09/14 04:10:41;;;;;;;;;;;19.40;66.70;;;15.19;100.00;95905.34;4993075;28;20335;-45
2023/09/14 04:13:27;;;;;;;;;;;19.40;66.70;;;15.23;100.00;95908.25;4992711;28;19909;-45
2023/09/14 04:15:53;;;;;;;;;;;19.50;66.70;;;15.24;100.00;95916.03;4989801;28;20339;-44
2023/09/14 04:18:19;;;;;;;;;;;19.50;66.80;;;15.27;100.00;95922.72;5012448;28;19912;-50
2023/09/14 04:20:49;;;;;;;;;;;19.50;66.80;;;15.28;100.00;95918.94;5011841;28;19915;-43
2023/09/14 04:23:15;;;;;;;;;;;19.50;66.80;;;15.31;100.00;95921.06;5013444;28;19909;-45
2023/09/14 04:25:47;;;;;;;;;;;19.50;66.80;;;15.31;100.00;95915.69;5010389;28;19994;-43
2023/09/14 04:28:17;;;;;;;;;;;19.60;66.80;;;15.34;100.00;95917.00;5001130;28;20092;-43
2023/09/14 04:30:47;;;;;;;;;;;19.60;66.80;;;15.36;100.00;95917.53;5030999;28;19947;-43
2023/09/14 04:33:14;;;;;;;;;;;19.60;66.80;;;15.37;100.00;95919.91;5030814;28;19958;-43
2023/09/14 04:35:41;;;;;;;;;;;19.60;66.80;;;15.40;100.00;95915.84;5031407;28;19940;-44
2023/09/14 04:38:09;;;;;;;;;;;19.60;66.80;;;15.42;100.00;95919.84;5009674;28;20012;-50
2023/09/14 04:40:38;;;;;;;;;;;19.70;66.80;;;15.42;100.00;95914.50;5001700;28;19940;-44
2023/09/14 04:43:05;;;;;;;;;;;19.70;66.80;;;15.42;100.00;95925.22;5027797;28;19908;-48
2023/09/14 04:45:31;;;;;;;;;;;19.70;66.80;;;15.42;100.00;95922.53;4998055;28;20071;-46
2023/09/14 04:47:59;;;;;;;;;;;19.70;66.80;;;15.42;100.00;95919.84;5025192;28;19913;-46
2023/09/14 04:50:25;;;;;;;;;;;19.70;66.70;;;15.40;100.00;95929.28;5029492;28;19909;-44
2023/09/14 04:52:51;;;;;;;;;;;19.70;66.70;;;15.39;100.00;95925.00;5007652;28;19996;-47
2023/09/14 04:55:17;;;;;;;;;;;19.70;66.70;;;15.39;100.00;95925.00;5015564;28;20003;-49
2023/09/14 04:57:43;;;;;;;;;;;19.70;66.70;;;15.41;100.00;95930.88;5013788;28;19915;-46
2023/09/14 05:00:09;;;;;;;;;;;19.70;66.70;;;15.42;100.00;95930.59;5031298;28;19920;-47
2023/09/14 05:02:36;;;;;;;;;;;19.80;66.80;;;15.43;100.00;95934.88;5016364;28;19909;-45
2023/09/14 05:05:03;;;;;;;;;;;19.70;66.70;;;15.43;100.00;95940.25;5013843;28;19995;-47
2023/09/14 05:07:29;;;;;;;;;;;19.70;66.70;;;15.42;100.00;95930.59;5026744;28;20264;-48
2023/09/14 05:09:55;;;;;;;;;;;19.70;66.70;;;15.41;100.00;95936.25;5007725;28;19955;-48
2023/09/14 05:12:21;;;;;;;;;;;19.80;66.80;;;15.44;100.00;95939.16;5008396;28;19921;-45
2023/09/14 05:14:47;;;;;;;;;;;19.80;66.80;;;15.46;100.00;95941.56;5023337;28;19973;-46
2023/09/14 05:17:12;;;;;;;;;;;19.70;66.70;;;15.46;100.00;95944.25;5029648;28;19928;-46
2023/09/14 05:19:42;;;;;;;;;;;19.70;66.70;;;15.47;100.00;95937.78;5026922;28;20307;-46
2023/09/14 05:22:09;;;;;;;;;;;19.80;66.90;;;15.42;100.00;95941.34;5008331;28;19920;-47
2023/09/14 05:24:38;;;;;;;;;;;19.80;66.90;;;15.44;100.00;95939.16;5030788;28;20435;-45
2023/09/14 05:27:04;;;;;;;;;;;19.80;66.90;;;15.41;100.00;95946.97;5008928;28;19915;-44
2023/09/14 05:29:30;;;;;;;;;;;19.80;66.90;;;15.40;100.00;95945.38;5005858;28;20316;-44
2023/09/14 05:31:56;;;;;;;;;;;19.80;66.90;;;15.40;100.00;95948.06;5009001;28;19909;-46
2023/09/14 05:34:22;;;;;;;;;;;19.80;66.90;;;15.42;100.00;95951.28;5015910;28;19917;-43
2023/09/14 05:36:49;;;;;;;;;;;19.70;66.70;;;15.40;100.00;95942.69;5004850;28;20503;-43
2023/09/14 05:39:15;;;;;;;;;;;19.80;66.80;;;15.42;100.00;95945.91;5006371;28;19916;-46
2023/09/14 05:41:41;;;;;;;;;;;19.70;66.80;;;15.44;100.00;95944.50;5006781;28;19999;-46
2023/09/14 05:44:09;;;;;;;;;;;19.80;66.90;;;15.42;100.00;95945.91;5023214;28;20427;-48
2023/09/14 05:46:36;;;;;;;;;;;19.80;66.90;;;15.42;100.00;95948.59;5006148;28;20011;-45
2023/09/14 05:49:02;;;;;;;;;;;19.80;66.90;;;15.34;100.00;95946.53;5030854;28;20375;-46
2023/09/14 05:51:28;;;;;;;;;;;19.80;67.00;;;15.35;100.00;95948.91;5018912;28;19920;-49
2023/09/14 05:53:55;;;;;;;;;;;19.80;66.70;;;15.36;100.00;95952.41;4998518;28;20028;-47
2023/09/14 05:56:22;;;;;;;;;;;19.80;66.70;;;15.34;100.00;95954.56;5020085;28;20125;-48
2023/09/14 05:58:48;;;;;;;;;;;19.80;66.70;;;15.41;100.00;95957.72;4999445;28;20583;-48
2023/09/14 06:01:14;;;;;;;;;;;19.80;66.80;;;15.41;100.00;95955.81;5033635;28;19977;-46
2023/09/14 06:03:40;;;;;;;;;;;19.80;66.80;;;15.44;100.00;95957.94;5005553;28;20023;-46
2023/09/14 06:06:06;;;;;;;;;;;19.80;66.80;;;15.47;100.00;95962.72;5030962;28;19940;-45
2023/09/14 06:08:33;;;;;;;;;;;19.80;66.80;;;15.52;100.00;95953.84;5020320;28;20374;-46
2023/09/14 06:11:00;;;;;;;;;;;19.90;66.90;;;15.54;100.00;95958.91;5029475;28;20383;-47
2023/09/14 06:13:26;;;;;;;;;;;19.90;66.80;;;15.54;100.00;95964.28;5034088;28;19909;-47
2023/09/14 06:15:51;;;;;;;;;;;19.90;66.80;;;15.50;100.00;95964.06;5033184;28;19915;-46
2023/09/14 06:18:17;;;;;;;;;;;20.00;66.80;;;15.54;100.00;95964.28;5032796;28;19915;-52
2023/09/14 06:20:44;;;;;;;;;;;20.00;67.50;;;15.57;100.00;95964.50;5017980;28;19916;-50
2023/09/14 06:23:10;;;;;;;;;;;20.10;66.70;;;15.54;100.00;95959.69;5023657;28;19917;-49
2023/09/14 06:25:35;;;;;;;;;;;20.10;66.70;;;15.58;100.00;95966.13;5031361;28;19966;-45
2023/09/14 06:28:01;;;;;;;;;;;20.10;66.60;;;15.59;100.00;95961.53;5029038;28;19920;-49
2023/09/14 06:30:27;;;;;;;;;;;20.20;66.60;;;15.61;100.00;95976.28;5034009;28;19912;-50
2023/09/14 06:32:53;;;;;;;;;;;20.20;66.50;;;15.63;100.00;95967.94;5032463;28;20291;-47
2023/09/14 06:35:19;;;;;;;;;;;20.30;66.40;;;15.63;100.00;95971.41;5032852;28;19920;-49
2023/09/14 06:37:45;;;;;;;;;;;20.30;66.40;;;15.64;100.00;95970.34;5014962;28;19912;-48
2023/09/14 06:40:11;;;;;;;;;;;20.30;66.30;;;15.65;100.00;95971.13;5005875;28;19989;-47
2023/09/14 06:42:37;;;;;;;;;;;20.30;66.30;;;15.66;100.00;95973.53;5023066;28;19993;-48
2023/09/14 06:45:04;;;;;;;;;;;20.30;66.10;;;15.66;100.00;95978.09;5013035;28;20351;-49
2023/09/14 06:47:29;;;;;;;;;;;20.30;66.10;;;15.75;100.00;95971.03;5020617;28;19936;-49
2023/09/14 06:49:55;;;;;;;;;;;20.40;66.10;;;15.85;100.00;95968.22;5031281;28;19955;-46
2023/09/14 06:52:21;;;;;;;;;;;20.50;66.10;;;15.93;100.00;95967.56;5015355;28;19932;-46
2023/09/14 06:54:47;;;;;;;;;;;20.60;66.10;;;15.96;100.00;95969.69;5011298;28;19909;-49
2023/09/14 06:57:13;;;;;;;;;;;20.70;66.00;;;15.96;100.00;95967.00;5016939;28;19942;-46
2023/09/14 06:59:39;;;;;;;;;;;20.80;65.80;;;15.93;100.00;95962.22;5012992;28;20294;-46
2023/09/14 07:02:05;;;;;;;;;;;20.90;65.60;;;15.95;100.00;95962.72;5046343;23;19921;-54
2023/09/14 07:04:33;;;;;;;;;;;20.90;65.40;;;16.01;100.00;95968.00;5013643;28;20043;-57
2023/09/14 07:06:59;;;;;;;;;;;21.00;65.30;;;16.10;100.00;95966.28;5020590;28;19948;-56
2023/09/14 07:09:25;;;;;;;;;;;21.10;65.20;;;16.20;100.00;95968.81;5023920;28;19952;-53
2023/09/14 07:11:51;;;;;;;;;;;21.20;65.10;;;16.32;100.00;95969.19;5014268;28;19909;-51
2023/09/14 07:14:16;;;;;;;;;;;21.30;65.00;;;16.39;100.00;95964.25;5014320;28;19919;-52
2023/09/14 07:16:42;;;;;;;;;;;21.50;64.90;;;16.50;100.00;95972.16;5033231;28;19962;-54
2023/09/14 07:19:08;;;;;;;;;;;21.60;64.70;;;16.58;100.00;95969.59;5037436;28;19995;-55
2023/09/14 07:21:37;;;;;;;;;;;21.70;64.60;;;16.64;100.00;95976.50;5031905;28;19909;-53
2023/09/14 07:24:07;;;;;;;;;;;21.80;64.40;;;16.77;100.00;95972.28;5033528;28;21076;-51
2023/09/14 07:26:34;;;;;;;;;;;21.90;64.30;;;16.76;100.00;95967.19;5032512;28;20010;-53
2023/09/14 07:29:01;;;;;;;;;;;21.90;64.10;;;16.79;100.00;95969.28;5028267;28;19917;-53
2023/09/14 07:31:27;;;;;;;;;;;22.00;63.90;;;16.86;100.00;95970.53;5023905;28;19913;-50
2023/09/14 07:33:53;;;;;;;;;;;22.10;63.70;;;16.97;100.00;95981.91;5032931;28;19908;-51
2023/09/14 07:36:19;;;;;;;;;;;22.20;63.70;;;17.08;100.00;95979.84;5036323;28;19996;-54
2023/09/14 07:38:45;;;;;;;;;;;22.30;63.60;;;17.19;100.00;95975.88;5031837;28;19912;-52
2023/09/14 07:41:12;;;;;;;;;;;22.40;63.40;;;17.30;100.00;95976.50;5032787;28;19915;-51
2023/09/14 07:43:37;;;;;;;;;;;22.50;63.30;;;17.37;100.00;95978.81;5029449;28;20377;-50
2023/09/14 07:46:03;;;;;;;;;;;22.60;63.20;;;17.33;100.00;95976.69;5029337;28;19917;-52
2023/09/14 07:48:29;;;;;;;;;;;22.70;62.90;;;17.43;100.00;95975.72;5032900;28;19916;-52
2023/09/14 07:50:55;;;;;;;;;;;22.80;62.70;;;17.52;100.00;95978.50;5031712;28;19913;-55
2023/09/14 07:53:21;;;;;;;;;;;23.00;62.50;;;17.62;100.00;95978.31;5009431;28;19966;-52
2023/09/14 07:55:52;;;;;;;;;;;23.10;62.30;;;17.76;100.00;95987.16;5028510;28;19908;-50
2023/09/14 07:58:20;;;;;;;;;;;23.30;62.10;;;17.91;100.00;95983.41;5032243;28;19951;-54
2023/09/14 08:00:47;;;;;;;;;;;23.50;62.00;;;18.14;100.00;95989.63;5028940;28;19912;-50
2023/09/14 08:03:14;;;;;;;;;;;23.70;61.80;;;18.33;100.00;95989.50;5030747;28;20439;-53
2023/09/14 08:05:41;;;;;;;;;;;23.90;62.30;;;18.47;100.00;95992.97;5031705;28;19927;-49
2023/09/14 08:08:09;;;;;;;;;;;24.10;61.30;;;18.53;100.00;95990.97;5013142;28;19919;-52
2023/09/14 08:10:36;;;;;;;;;;;24.30;61.00;;;18.44;98.19;95993.56;5032860;28;19950;-54
2023/09/14 08:13:02;;;;;;;;;;;24.50;60.50;;;18.43;99.59;95989.28;5031529;28;19959;-51
2023/09/14 08:15:29;;;;;;;;;;;24.70;60.20;;;18.32;100.00;95989.81;5026561;28;20347;-51
2023/09/14 08:17:55;;;;;;;;;;;24.80;59.90;;;18.36;99.15;95990.78;5021151;28;19908;-50
2023/09/14 08:20:21;;;;;;;;;;;24.80;59.70;;;18.64;98.45;95991.50;5024343;28;19915;-51
2023/09/14 08:22:48;;;;;;;;;;;24.90;59.60;;;18.93;97.91;95994.63;5017792;28;20316;-50
2023/09/14 08:25:15;;;;;;;;;;;25.00;59.50;;;19.07;95.68;95989.13;5025574;28;20418;-50
2023/09/14 08:27:43;;;;;;;;;;;25.10;59.40;;;19.13;95.87;95990.59;5024727;28;19913;-52
2023/09/14 08:30:11;;;;;;;;;;;25.20;59.20;;;19.07;95.88;95993.75;5017030;28;19995;-47
2023/09/14 08:32:37;;;;;;;;;;;25.40;59.10;;;19.30;96.64;95992.59;5027900;28;19915;-54
2023/09/14 08:35:25;;;;;;;;;;;25.50;59.50;;;19.52;93.04;95986.31;5023134;28;19912;-50
2023/09/14 08:37:52;;;;;;;;;;;25.70;58.80;;;19.57;91.82;95980.81;5026863;28;19912;-52
2023/09/14 08:40:19;;;;;;;;;;;25.90;58.60;;;19.77;92.43;95981.38;5031787;28;19909;-51
2023/09/14 08:42:52;;;;;;;;;;;26.00;58.30;;;19.80;91.13;95978.03;5031201;28;20008;-52
2023/09/14 08:45:30;;;;;;;;;;;26.20;58.00;;;19.86;90.45;95974.09;5022907;28;19935;-52
2023/09/14 08:47:59;;;;;;;;;;;26.40;57.80;;;19.88;88.87;95975.38;5027165;28;19940;-52
2023/09/14 08:50:29;;;;;;;;;;;26.40;57.50;;;19.94;88.11;95977.94;5024907;28;20295;-54
2023/09/14 08:52:55;;;;;;;;;;;26.60;57.30;;;19.42;90.69;95973.09;5031121;28;20401;-50
2023/09/14 08:55:31;;;;;;;;;;;26.60;56.90;;;19.44;91.68;95976.31;5029747;28;19917;-50
2023/09/14 08:57:57;;;;;;;;;;;26.60;56.70;;;19.70;90.11;95981.81;5021915;28;19920;-50
2023/09/14 09:00:28;;;;;;;;;;;26.50;56.70;;;19.72;88.95;95984.22;5029849;28;19915;-48
2023/09/14 09:02:56;;;;;;;;;;;26.40;56.60;;;19.85;89.45;95975.19;5029879;28;19977;-50
2023/09/14 09:05:26;;;;;;;;;;;26.30;56.60;;;19.77;88.27;95978.66;5031004;28;19923;-48
2023/09/14 09:07:54;;;;;;;;;;;26.30;56.70;;;19.87;88.44;95978.41;5029758;28;19921;-49
2023/09/14 09:10:22;;;;;;;;;;;26.20;56.70;;;19.58;89.99;95974.28;5033297;28;19940;-52
2023/09/14 09:13:03;;;;;;;;;;;26.00;56.70;;;19.63;90.20;95984.16;5030677;28;19909;-48
2023/09/14 09:15:32;;;;;;;;;;;25.90;56.60;;;19.52;91.27;95986.31;5030163;28;20030;-48
2023/09/14 09:18:10;;;;;;;;;;;25.90;56.70;;;19.63;89.50;95978.75;5013196;28;19932;-48
2023/09/14 09:20:39;;;;;;;;;;;25.90;56.70;;;19.54;91.32;95983.34;5028509;28;19912;-50
2023/09/14 09:23:06;;;;;;;;;;;25.90;56.70;;;19.63;90.41;95987.66;5030277;28;19909;-49
2023/09/14 09:25:45;;;;;;;;;;;25.90;56.80;;;19.52;90.99;95985.53;5029964;28;19961;-47
2023/09/14 09:28:11;;;;;;;;;;;25.80;56.80;;;19.53;91.65;95989.84;5030511;28;19924;-47
2023/09/14 09:30:37;;;;;;;;;;;25.80;56.70;;;19.63;91.27;95979.56;5030973;28;19913;-47
2023/09/14 09:33:04;;;;;;;;;;;25.90;56.70;;;19.73;90.17;95972.31;5029311;28;19979;-48
2023/09/14 09:35:31;;;;;;;;;;;26.00;56.50;;;19.80;87.50;95968.03;5030343;28;19909;-51
2023/09/14 09:37:59;;;;;;;;;;;26.20;56.30;;;20.10;86.12;95970.97;5029195;28;19931;-47
2023/09/14 09:40:35;;;;;;;;;;;26.60;56.00;;;20.61;84.42;95968.63;5030412;28;19932;-49
2023/09/14 09:43:05;;;;;;;;;;;27.00;55.70;;;21.05;80.43;95962.03;5029904;28;19938;-49
2023/09/14 09:45:31;;;;;;;;;;;27.50;55.60;;;21.22;78.57;95972.06;5029426;28;20374;-49
2023/09/14 09:48:01;;;;;;;;;;;27.80;55.30;;;21.57;77.46;95967.31;5022577;28;19913;-47
2023/09/14 09:50:29;;;;;;;;;;;28.30;54.80;;;21.64;76.45;95972.25;5033006;28;20290;-55
2023/09/14 09:52:55;;;;;;;;;;;28.50;54.20;;;22.02;76.23;95963.25;5030046;28;19908;-55
2023/09/14 09:55:30;;;;;;;;;;;28.90;53.80;;;22.49;74.00;95972.06;5030631;28;19931;-53
2023/09/14 09:57:59;;;;;;;;;;;29.50;53.30;;;22.87;71.47;95960.22;5026016;28;19913;-55
2023/09/14 10:00:36;;;;;;;;;;;30.10;52.90;;;22.75;70.69;95966.44;5030622;28;19952;-54
2023/09/14 10:03:03;;;;;;;;;;;30.20;52.40;;;22.98;70.41;95952.50;5028840;28;19917;-57
2023/09/14 10:05:47;;;;;;;;;;;30.50;51.90;;;23.19;70.29;95955.13;5030180;28;19916;-57
2023/09/14 10:08:19;;;;;;;;;;;30.90;51.50;;;23.38;68.74;95960.03;5024358;28;19917;-53
2023/09/14 10:10:51;;;;;;;;;;;31.20;50.80;;;23.52;67.46;95947.72;5032870;28;19915;-54
2023/09/14 10:13:24;;;;;;;;;;;31.50;50.40;;;23.72;66.41;95953.44;5029628;28;20332;-55
2023/09/14 10:15:53;;;;;;;;;;;31.60;50.10;;;23.67;66.99;95953.63;5029354;28;19980;-54
2023/09/14 10:18:22;;;;;;;;;;;31.70;50.10;;;23.24;67.42;95944.84;5030146;28;19908;-52
2023/09/14 10:20:53;;;;;;;;;;;31.40;50.10;;;22.61;70.33;95952.31;5029142;28;19909;-53
2023/09/14 10:23:21;;;;;;;;;;;31.20;50.00;;;22.64;70.09;95951.66;5029915;28;20295;-53
2023/09/14 10:25:50;;;;;;;;;;;30.80;50.00;;;22.23;71.68;95953.25;5028734;28;19979;-54
2023/09/14 10:28:19;;;;;;;;;;;30.40;50.20;;;21.38;74.46;95947.97;5027751;28;19994;-55
2023/09/14 10:30:46;;;;;;;;;;;30.00;50.30;;;21.37;77.30;95946.34;5019095;28;19909;-55
2023/09/14 10:33:14;;;;;;;;;;;29.60;50.40;;;21.72;77.40;95947.00;5025803;28;19909;-55
2023/09/14 10:35:42;;;;;;;;;;;29.40;50.60;;;22.03;75.99;95940.44;5020073;28;19968;-51
2023/09/14 10:38:08;;;;;;;;;;;29.50;50.70;;;22.37;73.46;95939.44;5018388;28;20003;-56
2023/09/14 10:40:37;;;;;;;;;;;29.80;50.70;;;22.22;73.42;95938.13;5012539;28;19918;-53
2023/09/14 10:43:05;;;;;;;;;;;29.90;50.60;;;22.15;70.70;95930.44;5019117;28;19964;-56
2023/09/14 10:45:36;;;;;;;;;;;29.80;50.40;;;21.93;73.30;95925.34;5023395;28;20286;-57
2023/09/14 10:48:08;;;;;;;;;;;29.70;50.20;;;21.73;73.71;95926.13;5015413;28;19917;-56
2023/09/14 10:50:34;;;;;;;;;;;29.60;50.20;;;21.58;75.04;95924.75;5015482;28;19908;-57
2023/09/14 10:53:02;;;;;;;;;;;29.50;50.20;;;21.61;75.56;95924.09;5030179;28;20385;-57
2023/09/14 10:55:31;;;;;;;;;;;29.50;50.10;;;21.55;76.12;95919.97;5025138;28;19916;-56
2023/09/14 10:57:57;;;;;;;;;;;29.60;50.10;;;21.44;76.44;95917.66;5022120;28;20292;-54
2023/09/14 11:00:36;;;;;;;;;;;29.90;50.00;;;21.00;78.81;95916.97;5029018;28;20004;-57
2023/09/14 11:03:02;;;;;;;;;;;29.80;49.80;;;21.22;75.98;95912.47;5028123;28;19923;-54
2023/09/14 11:05:48;;;;;;;;;;;29.70;49.80;;;21.87;78.12;95905.78;5018517;28;19909;-53
2023/09/14 11:08:16;;;;;;;;;;;30.10;49.90;;;22.36;74.29;95906.06;5030980;28;19913;-55
2023/09/14 11:11:00;;;;;;;;;;;30.60;50.00;;;22.16;71.72;95902.25;5025709;28;19935;-53
2023/09/14 11:13:30;;;;;;;;;;;31.00;49.40;;;21.87;74.59;95905.78;5016955;28;20381;-55
2023/09/14 11:16:20;;;;;;;;;;;31.00;49.10;;;21.83;73.56;95910.25;5025706;28;19916;-56